Time;durP1;ratioP1;P1;durP2;ratioP2;P2;SDS_P1;SDS_P2;PMS_P1;PMS_P2;Temp;Humidity;BMP_temperature;BMP_pressure;BME280_temperature;BME280_humidity;BME280_pressure;Samples;Min_cycle;Max_cycle;Signal;HPM_P1;HPM_P2
2023/07/07 00:04:59;;;;;;;;;;;;;;;;;;;;;
2023/07/07 00:07:48;;;;;;;;;;;;;;;;;;;;;
2023/07/07 00:11:08;;;;;;;;;;;;;;;;;;;;;
2023/07/07 00:13:38;;;;;;;;;;;;;;;;;;;;;
2023/07/07 00:16:19;;;;;;;;;;;;;;;;;;;;;
2023/07/07 00:19:09;;;;;;;;;;;;;;;15.30;71.87;101847.94;5023167;28;1226;-83
2023/07/07 00:21:58;;;;;;;;;;;;;;;15.29;72.12;101847.13;5021515;28;1909;-84
2023/07/07 00:24:31;;;;;;;;;;;;;;;15.30;72.27;101848.78;5011087;28;1101;-83
2023/07/07 00:27:25;;;;;;;;;;;;;;;15.33;72.30;101843.31;5021254;28;1278;-84
2023/07/07 00:30:23;;;;;;;;;;;;;;;;;;;;;
2023/07/07 00:33:04;;;;;;;;;;;;;;;;;;;;;
2023/07/07 00:35:52;;;;;;;;;;;;;;;15.38;72.32;101841.13;5018301;28;1112;-84
2023/07/07 00:38:27;;;;;;;;;;;;;;;15.37;72.14;101852.53;5020743;28;1307;-84
2023/07/07 00:41:17;;;;;;;;;;;;;;;;;;;;;
2023/07/07 00:46:55;;;;;;;;;;;;;;;15.24;72.60;101844.06;5010071;28;1279;-84
2023/07/07 00:49:40;;;;;;;;;;;;;;;;;;;;;
2023/07/07 00:52:19;;;;;;;;;;;;;;;;;;;;;
2023/07/07 00:55:12;;;;;;;;;;;;;;;;;;;;;
2023/07/07 00:57:49;;;;;;;;;;;;;;;15.03;73.34;101845.91;5021825;28;1038;-83
2023/07/07 01:00:52;;;;;;;;;;;;;;;14.93;73.69;101843.22;5024181;28;1346;-83
2023/07/07 01:03:48;;;;;;;;;;;;;;;14.85;73.82;101848.25;5003926;28;1984;-83
2023/07/07 01:06:33;;;;;;;;;;;;;;;14.77;74.22;101856.72;5018386;28;1201;-83
2023/07/07 01:09:19;;;;;;;;;;;;;;;14.74;74.11;101858.78;5012707;28;1029;-84
2023/07/07 01:12:05;;;;;;;;;;;;;;;;;;;;;
2023/07/07 01:14:51;;;;;;;;;;;;;;;14.73;74.62;101850.09;5022809;28;1329;-84
2023/07/07 01:17:45;;;;;;;;;;;;;;;14.76;74.50;101849.03;5024599;28;1076;-84
2023/07/07 01:20:41;;;;;;;;;;;;;;;14.74;74.62;101851.78;5024664;28;1201;-84
2023/07/07 01:26:12;;;;;;;;;;;;;;;14.79;74.41;101854.81;5019278;28;1409;-84
2023/07/07 01:29:22;;;;;;;;;;;;;;;14.76;74.45;101849.84;5016983;28;1659;-84
2023/07/07 01:31:52;;;;;;;;;;;;;;;14.77;74.63;101846.28;4951488;28;1413;-83
2023/07/07 01:40:43;;;;;;;;;;;;;;;14.81;74.46;101852.91;5016344;28;1213;-83
2023/07/07 01:43:23;;;;;;;;;;;;;;;14.81;74.37;101858.16;5018295;28;1902;-83
2023/07/07 01:46:17;;;;;;;;;;;;;;;;;;;;;
2023/07/07 01:49:10;;;;;;;;;;;;;;;;;;;;;
2023/07/07 01:57:57;;;;;;;;;;;;;;;;;;;;;
2023/07/07 02:00:31;;;;;;;;;;;;;;;14.52;75.36;101842.28;5029801;28;1156;-83
2023/07/07 02:03:06;;;;;;;;;;;;;;;14.50;75.53;101848.56;5016327;28;1959;-83
2023/07/07 02:05:54;;;;;;;;;;;;;;;;;;;;;
2023/07/07 02:08:38;;;;;;;;;;;;;;;14.32;76.42;101851.69;5019021;28;987;-83
2023/07/07 02:11:06;;;;;;;;;;;;;;;14.20;76.32;101847.47;5020167;28;1069;-84
2023/07/07 02:13:46;;;;;;;;;;;;;;;;;;;;;
2023/07/07 02:16:16;;;;;;;;;;;;;;;14.05;76.77;101849.53;5024667;28;962;-84
2023/07/07 02:22:19;;;;;;;;;;;;;;;13.91;77.36;101846.34;5022221;28;1910;-84
2023/07/07 02:25:07;;;;;;;;;;;;;;;13.92;77.41;101850.63;5016471;28;1358;-83
2023/07/07 02:27:47;;;;;;;;;;;;;;;;;;;;;
2023/07/07 02:30:26;;;;;;;;;;;;;;;13.96;77.94;101839.00;5026848;28;1003;-83
2023/07/07 02:33:17;;;;;;;;;;;;;;;13.91;78.04;101843.75;5026932;28;1435;-84
2023/07/07 02:36:09;;;;;;;;;;;;;;;;;;;;;
2023/07/07 02:38:52;;;;;;;;;;;;;;;13.94;78.19;101848.72;5013420;28;1555;-83
2023/07/07 02:41:28;;;;;;;;;;;;;;;13.96;77.82;101846.81;5028914;28;1894;-83
2023/07/07 02:44:26;;;;;;;;;;;;;;;;;;;;;
2023/07/07 02:47:40;;;;;;;;;;;;;;;;;;;;;
2023/07/07 02:53:17;;;;;;;;;;;;;;;;;;;;;
2023/07/07 02:58:41;;;;;;;;;;;;;;;13.78;78.79;101855.16;5017875;28;1206;-83
2023/07/07 03:01:19;;;;;;;;;;;;;;;;;;;;;
2023/07/07 03:03:56;;;;;;;;;;;;;;;13.85;78.94;101867.69;5028897;28;1503;-83
2023/07/07 03:09:40;;;;;;;;;;;;;;;13.90;78.74;101855.13;5000891;28;1363;-83
2023/07/07 03:12:29;;;;;;;;;;;;;;;13.93;78.50;101855.69;5030194;28;1154;-84
2023/07/07 03:15:09;;;;;;;;;;;;;;;;;;;;;
2023/07/07 03:17:49;;;;;;;;;;;;;;;13.95;78.47;101863.44;5034644;28;1322;-84
2023/07/07 03:20:29;;;;;;;;;;;;;;;13.95;78.63;101860.81;5030237;28;1181;-83
2023/07/07 03:23:11;;;;;;;;;;;;;;;13.90;78.36;101849.91;5022091;28;1975;-83
2023/07/07 03:25:45;;;;;;;;;;;;;;;13.94;78.34;101857.38;5024269;28;1445;-86
2023/07/07 03:28:43;;;;;;;;;;;;;;;13.93;78.64;101860.91;5024576;28;1300;-85
2023/07/07 03:31:32;;;;;;;;;;;;;;;;;;;;;
2023/07/07 03:34:07;;;;;;;;;;;;;;;13.91;78.09;101872.44;5022981;28;1021;-86
2023/07/07 03:36:38;;;;;;;;;;;;;;;13.89;78.30;101858.69;5019066;28;1079;-85
2023/07/07 03:39:09;;;;;;;;;;;;;;;13.89;78.66;101866.53;5025055;28;1162;-86
2023/07/07 03:41:53;;;;;;;;;;;;;;;;;;;;;
2023/07/07 03:44:33;;;;;;;;;;;;;;;;;;;;;
2023/07/07 03:47:01;;;;;;;;;;;;;;;13.84;78.51;101864.28;5016983;28;1248;-85
2023/07/07 03:49:57;;;;;;;;;;;;;;;;;;;;;
2023/07/07 03:52:51;;;;;;;;;;;;;;;;;;;;;
2023/07/07 03:55:42;;;;;;;;;;;;;;;13.76;78.73;101864.88;5019587;28;1070;-86
2023/07/07 03:58:17;;;;;;;;;;;;;;;;;;;;;
2023/07/07 04:00:48;;;;;;;;;;;;;;;13.76;78.82;101859.66;5021890;28;1508;-86
2023/07/07 04:03:43;;;;;;;;;;;;;;;;;;;;;
2023/07/07 04:06:11;;;;;;;;;;;;;;;13.73;78.84;101872.09;5012691;28;1093;-85
2023/07/07 04:12:27;;;;;;;;;;;;;;;13.70;78.84;101869.72;5016069;28;1370;-85
2023/07/07 04:14:52;;;;;;;;;;;;;;;13.69;78.92;101868.91;5017876;28;1309;-85
2023/07/07 04:17:17;;;;;;;;;;;;;;;13.70;78.82;101875.75;5017052;28;1303;-85
2023/07/07 04:19:43;;;;;;;;;;;;;;;13.69;79.03;101868.91;5014558;28;1249;-85
2023/07/07 04:22:08;;;;;;;;;;;;;;;13.71;78.96;101881.84;5024417;28;1890;-85
2023/07/07 04:24:33;;;;;;;;;;;;;;;13.71;79.08;101877.44;5019657;28;1249;-86
2023/07/07 04:26:58;;;;;;;;;;;;;;;13.71;79.10;101880.06;5028660;28;1229;-86
2023/07/07 04:29:23;;;;;;;;;;;;;;;13.70;78.74;101880.97;5026803;28;1297;-85
2023/07/07 04:31:49;;;;;;;;;;;;;;;13.69;79.11;101879.31;5018374;28;1266;-87
2023/07/07 04:34:15;;;;;;;;;;;;;;;13.67;79.16;101886.44;5024866;28;1096;-87
2023/07/07 04:36:40;;;;;;;;;;;;;;;13.68;78.98;101887.28;5027537;28;1217;-86
2023/07/07 04:39:07;;;;;;;;;;;;;;;13.70;78.90;101895.78;5033241;28;1089;-86
2023/07/07 04:41:32;;;;;;;;;;;;;;;13.68;79.18;101882.88;5023365;28;1886;-86
2023/07/07 04:43:59;;;;;;;;;;;;;;;13.69;79.06;101879.31;5030462;28;1008;-86
2023/07/07 04:46:29;;;;;;;;;;;;;;;13.68;79.47;101875.06;5024234;28;1101;-86
2023/07/07 04:49:07;;;;;;;;;;;;;;;13.71;79.42;101874.00;5027468;28;1200;-86
2023/07/07 04:51:33;;;;;;;;;;;;;;;13.73;79.17;101874.72;5019461;28;1232;-86
2023/07/07 04:53:58;;;;;;;;;;;;;;;13.73;79.15;101870.31;5019808;28;1223;-86
2023/07/07 04:56:23;;;;;;;;;;;;;;;13.73;79.39;101869.50;5023807;28;1372;-85
2023/07/07 04:58:53;;;;;;;;;;;;;;;13.75;79.47;101873.63;5026599;28;1192;-86
2023/07/07 05:01:19;;;;;;;;;;;;;;;13.76;79.56;101883.13;5031286;28;1267;-85
2023/07/07 05:03:45;;;;;;;;;;;;;;;13.78;79.59;101883.00;5029382;28;1898;-85
2023/07/07 05:06:11;;;;;;;;;;;;;;;13.79;79.79;101880.28;5030860;28;1068;-86
2023/07/07 05:08:38;;;;;;;;;;;;;;;13.82;79.86;101879.22;5024022;28;1097;-85
2023/07/07 05:11:04;;;;;;;;;;;;;;;13.85;79.99;101883.34;5021937;28;1417;-85
2023/07/07 05:13:31;;;;;;;;;;;;;;;13.88;80.02;101880.50;5020473;28;1615;-86
2023/07/07 05:16:04;;;;;;;;;;;;;;;13.92;80.07;101884.53;5026896;28;1164;-85
2023/07/07 05:18:29;;;;;;;;;;;;;;;13.94;80.11;101883.47;5028410;28;1090;-85
2023/07/07 05:20:55;;;;;;;;;;;;;;;13.97;80.42;101885.81;5022269;28;1370;-84
2023/07/07 05:23:20;;;;;;;;;;;;;;;14.02;80.14;101890.69;5032096;28;1870;-86
2023/07/07 05:25:45;;;;;;;;;;;;;;;14.07;80.27;101888.53;5023513;28;1414;-85
2023/07/07 05:28:10;;;;;;;;;;;;;;;14.13;80.39;101889.81;5029770;28;1335;-85
2023/07/07 05:31:01;;;;;;;;;;;;;;;14.19;80.33;101887.56;5031634;28;1302;-86
2023/07/07 05:33:29;;;;;;;;;;;;;;;14.25;79.98;101892.28;5025653;28;1256;-85
2023/07/07 05:35:56;;;;;;;;;;;;;;;14.31;80.07;101888.34;5023762;28;1451;-85
2023/07/07 05:38:25;;;;;;;;;;;;;;;14.38;80.18;101886.06;5023929;28;1282;-85
2023/07/07 05:40:50;;;;;;;;;;;;;;;14.46;80.22;101894.13;5021762;28;1064;-84
2023/07/07 05:43:16;;;;;;;;;;;;;;;14.50;80.33;101885.94;5024732;28;1977;-85
2023/07/07 05:45:42;;;;;;;;;;;;;;;14.60;80.00;101891.25;5021448;28;1307;-85
2023/07/07 05:48:08;;;;;;;;;;;;;;;14.69;79.59;101895.72;5023803;28;1088;-85
2023/07/07 05:50:33;;;;;;;;;;;;;;;14.76;79.65;101902.09;5025829;28;977;-84
2023/07/07 05:52:58;;;;;;;;;;;;;;;14.84;79.51;101898.84;5025757;28;1067;-84
2023/07/07 05:55:25;;;;;;;;;;;;;;;14.91;79.20;101896.53;5018414;28;1049;-84
2023/07/07 05:57:51;;;;;;;;;;;;;;;15.01;79.13;101897.44;5022029;28;1069;-85
2023/07/07 06:00:17;;;;;;;;;;;;;;;15.08;78.95;101895.97;5026256;28;1412;-84
2023/07/07 06:02:45;;;;;;;;;;;;;;;15.17;79.09;101891.78;5024905;28;1914;-84
2023/07/07 06:05:10;;;;;;;;;;;;;;;15.25;78.38;101898.00;5025163;28;1146;-86
2023/07/07 06:07:36;;;;;;;;;;;;;;;15.34;78.40;101896.41;5030113;28;1378;-84
2023/07/07 06:10:01;;;;;;;;;;;;;;;15.43;78.49;101894.81;5029823;28;1366;-85
2023/07/07 06:12:26;;;;;;;;;;;;;;;15.53;78.22;101890.44;5035568;28;1169;-85
2023/07/07 06:14:51;;;;;;;;;;;;;;;15.61;77.65;101898.47;5016430;28;1343;-85
2023/07/07 06:17:16;;;;;;;;;;;;;;;15.69;77.67;101901.25;5022501;28;1175;-84
2023/07/07 06:19:42;;;;;;;;;;;;;;;15.79;77.88;101902.13;5027120;28;1418;-85
2023/07/07 06:22:07;;;;;;;;;;;;;;;15.90;77.05;101894.19;5027714;28;1973;-84
2023/07/07 06:24:32;;;;;;;;;;;;;;;16.00;77.39;101898.59;5026345;28;1266;-85
2023/07/07 06:26:57;;;;;;;;;;;;;;;16.09;76.92;101897.78;5030972;28;1290;-85
2023/07/07 06:29:22;;;;;;;;;;;;;;;16.18;76.81;101891.75;5025071;28;1289;-85
2023/07/07 06:31:48;;;;;;;;;;;;;;;16.31;76.18;101897.56;5027651;28;1152;-85
2023/07/07 06:34:13;;;;;;;;;;;;;;;16.42;76.48;101904.47;5030882;28;1311;-86
2023/07/07 06:36:39;;;;;;;;;;;;;;;16.46;75.78;101896.19;5025401;28;1189;-85
2023/07/07 06:39:05;;;;;;;;;;;;;;;16.62;75.77;101900.03;5024758;28;1120;-86
2023/07/07 06:41:30;;;;;;;;;;;;;;;16.73;75.78;101903.38;5020904;28;1902;-85
2023/07/07 06:43:56;;;;;;;;;;;;;;;16.86;75.82;101905.72;5017942;28;1558;-85
2023/07/07 06:46:23;;;;;;;;;;;;;;;16.98;75.26;101896.75;5023568;28;1322;-85
2023/07/07 06:48:48;;;;;;;;;;;;;;;17.11;74.64;101906.09;5027771;28;1129;-86
2023/07/07 06:51:13;;;;;;;;;;;;;;;17.25;74.72;101905.63;5022479;28;997;-86
2023/07/07 06:53:38;;;;;;;;;;;;;;;17.35;73.52;101903.81;5020305;28;1658;-86
2023/07/07 06:56:04;;;;;;;;;;;;;;;17.45;73.58;101909.84;5016115;28;1332;-85
2023/07/07 06:58:30;;;;;;;;;;;;;;;17.57;73.59;101907.88;5032952;28;1081;-85
2023/07/07 07:00:55;;;;;;;;;;;;;;;17.74;73.55;101916.81;5028947;28;1113;-85
2023/07/07 07:03:20;;;;;;;;;;;;;;;17.85;72.81;101911.38;5028206;28;1993;-85
2023/07/07 07:05:46;;;;;;;;;;;;;;;17.96;71.93;101910.34;5026112;28;1333;-85
2023/07/07 07:08:11;;;;;;;;;;;;;;;18.06;72.21;101924.22;5033915;28;1049;-86
2023/07/07 07:10:37;;;;;;;;;;;;;;;18.18;71.74;101914.34;5028822;28;1394;-86
2023/07/07 07:13:02;;;;;;;;;;;;;;;18.30;71.43;101923.69;5025605;28;1401;-85
2023/07/07 07:15:27;;;;;;;;;;;;;;;18.42;71.18;101919.88;5023884;28;1197;-86
2023/07/07 07:17:52;;;;;;;;;;;;;;;18.53;70.47;101924.91;5024425;28;1054;-84
2023/07/07 07:20:17;;;;;;;;;;;;;;;18.65;69.62;101922.03;5030009;28;1430;-85
2023/07/07 07:22:43;;;;;;;;;;;;;;;18.75;69.25;101926.28;5026698;28;1929;-85
2023/07/07 07:25:09;;;;;;;;;;;;;;;18.88;69.11;101925.06;5022124;28;1199;-85
2023/07/07 07:27:34;;;;;;;;;;;;;;;19.03;68.51;101929.59;5023242;28;1148;-85
2023/07/07 07:29:59;;;;;;;;;;;;;;;19.17;68.83;101935.28;5026131;28;1376;-86
2023/07/07 07:32:24;;;;;;;;;;;;;;;19.29;66.88;101928.78;5021630;28;982;-85
2023/07/07 07:34:49;;;;;;;;;;;;;;;19.41;67.79;101938.06;5032091;28;1097;-86
2023/07/07 07:37:15;;;;;;;;;;;;;;;19.52;67.57;101940.41;5026749;28;1308;-85
2023/07/07 07:39:40;;;;;;;;;;;;;;;19.67;67.00;101938.06;5006864;28;1321;-85
2023/07/07 07:42:05;;;;;;;;;;;;;;;19.79;66.24;101930.72;5026792;28;1957;-86
2023/07/07 07:44:31;;;;;;;;;;;;;;;19.88;65.98;101940.28;5020030;28;1318;-85
2023/07/07 07:46:57;;;;;;;;;;;;;;;19.98;65.83;101940.97;5024248;28;1327;-85
2023/07/07 07:49:26;;;;;;;;;;;;;;;20.08;63.40;101941.69;5028197;28;1166;-86
2023/07/07 07:51:52;;;;;;;;;;;;;;;20.22;65.00;101947.28;5029005;28;1140;-86
2023/07/07 07:54:18;;;;;;;;;;;;;;;20.35;64.85;101942.38;5025060;28;1071;-85
2023/07/07 07:56:43;;;;;;;;;;;;;;;20.52;63.97;101938.00;5024824;28;1663;-85
2023/07/07 07:59:09;;;;;;;;;;;;;;;20.64;62.63;101942.81;5043934;28;1294;-86
2023/07/07 08:01:37;;;;;;;;;;;;;;;20.75;60.62;101948.72;5028768;28;1958;-86
2023/07/07 08:04:03;;;;;;;;;;;;;;;20.86;61.24;101945.75;5014843;28;1381;-86
2023/07/07 08:06:28;;;;;;;;;;;;;;;20.95;61.94;101945.59;5028434;28;1325;-85
2023/07/07 08:08:53;;;;;;;;;;;;;;;21.08;60.48;101939.78;5017932;28;1089;-86
2023/07/07 08:11:19;;;;;;;;;;;;;;;21.16;60.06;101931.03;5030855;28;1095;-86
2023/07/07 08:13:45;;;;;;;;;;;;;;;21.23;56.25;101942.59;5027802;28;1287;-85
2023/07/07 08:16:10;;;;;;;;;;;;;;;21.31;59.00;101945.22;5018962;28;1389;-85
2023/07/07 08:18:39;;;;;;;;;;;;;;;21.44;59.80;101949.97;5017270;28;1231;-86
2023/07/07 08:21:05;;;;;;;;;;;;;;;21.59;59.65;101936.91;5021863;28;1357;-85
2023/07/07 08:23:30;;;;;;;;;;;;;;;21.74;59.31;101951.06;5023370;28;1955;-85
2023/07/07 08:25:56;;;;;;;;;;;;;;;21.86;56.88;101946.22;5022142;28;1082;-86
2023/07/07 08:28:21;;;;;;;;;;;;;;;21.92;57.96;101948.16;5027800;28;1150;-85
2023/07/07 08:30:46;;;;;;;;;;;;;;;21.97;57.39;101945.84;5027832;28;1369;-86
2023/07/07 08:33:12;;;;;;;;;;;;;;;22.11;58.57;101937.19;5025206;28;1302;-87
2023/07/07 08:35:37;;;;;;;;;;;;;;;22.18;56.87;101948.69;5026444;28;1245;-85
2023/07/07 08:38:03;;;;;;;;;;;;;;;22.25;54.58;101948.81;5025783;28;1337;-85
2023/07/07 08:40:35;;;;;;;;;;;;;;;22.34;56.33;101946.97;5021137;28;1436;-85
2023/07/07 08:43:00;;;;;;;;;;;;;;;22.47;55.62;101949.84;5020851;28;1898;-83
2023/07/07 08:45:27;;;;;;;;;;;;;;;22.56;55.06;101956.72;5023684;28;1298;-83
2023/07/07 08:47:57;;;;;;;;;;;;;;;22.66;55.48;101957.31;5017052;28;1081;-83
2023/07/07 08:50:48;;;;;;;;;;;;;;;22.72;52.25;101951.31;5016603;28;1316;-83
2023/07/07 08:53:32;;;;;;;;;;;;;;;22.82;53.01;101955.53;4997427;28;1308;-83
2023/07/07 08:56:04;;;;;;;;;;;;;;;22.90;53.50;101958.97;5017981;28;1347;-83
2023/07/07 08:58:35;;;;;;;;;;;;;;;22.98;52.74;101952.78;5020143;28;1318;-83
2023/07/07 09:01:15;;;;;;;;;;;;;;;23.00;50.41;101948.97;5025366;28;1174;-83
2023/07/07 09:03:45;;;;;;;;;;;;;;;23.10;52.02;101951.31;5020024;28;1995;-83
2023/07/07 09:06:11;;;;;;;;;;;;;;;23.24;52.82;101955.84;5021979;28;1223;-83
2023/07/07 09:08:42;;;;;;;;;;;;;;;23.36;52.54;101958.03;5023078;28;1404;-83
2023/07/07 09:11:07;;;;;;;;;;;;;;;23.42;50.97;101946.72;5021812;28;1170;-82
2023/07/07 09:13:34;;;;;;;;;;;;;;;23.45;50.06;101946.34;5022038;28;1179;-83
2023/07/07 09:16:05;;;;;;;;;;;;;;;23.49;51.10;101948.44;5006139;28;1477;-82
2023/07/07 09:18:36;;;;;;;;;;;;;;;23.53;50.36;101948.91;5023198;28;1106;-81
2023/07/07 09:21:03;;;;;;;;;;;;;;;23.70;50.67;101939.78;5016309;28;1464;-81
2023/07/07 09:23:30;;;;;;;;;;;;;;;23.78;44.24;101944.97;5022913;28;1893;-82
2023/07/07 09:25:58;;;;;;;;;;;;;;;23.84;49.96;101941.59;5025934;28;1085;-81
2023/07/07 09:28:26;;;;;;;;;;;;;;;23.92;46.59;101943.31;5028867;28;1075;-81
2023/07/07 09:31:02;;;;;;;;;;;;;;;23.98;48.20;101944.41;5028053;28;1301;-81
2023/07/07 09:33:27;;;;;;;;;;;;;;;24.08;47.74;101947.56;5027823;28;1087;-81
2023/07/07 09:35:52;;;;;;;;;;;;;;;24.10;45.08;101946.38;5024918;28;1025;-81
2023/07/07 09:38:18;;;;;;;;;;;;;;;24.23;46.16;101945.69;5018571;28;1150;-81
2023/07/07 09:41:03;;;;;;;;;;;;;;;24.36;44.79;101945.03;5017346;28;1422;-81
2023/07/07 09:43:36;;;;;;;;;;;;;;;24.47;46.62;101946.38;5026042;28;1973;-82
2023/07/07 09:46:24;;;;;;;;;;;;;;;24.52;44.12;101949.28;5019796;28;1153;-81
2023/07/07 09:48:55;;;;;;;;;;;;;;;24.56;46.70;101937.28;5017487;28;1350;-81
2023/07/07 09:51:20;;;;;;;;;;;;;;;24.50;43.26;101938.03;5017172;28;1210;-82
2023/07/07 09:53:46;;;;;;;;;;;;;;;24.49;43.78;101947.03;5024277;28;1216;-81
2023/07/07 09:56:13;;;;;;;;;;;;;;;24.52;43.97;101938.66;5022538;28;1301;-81
2023/07/07 09:58:49;;;;;;;;;;;;;;;24.59;45.07;101928.94;5024886;28;1644;-82
2023/07/07 10:01:15;;;;;;;;;;;;;;;24.67;44.12;101935.94;5025231;28;1235;-81
2023/07/07 10:03:45;;;;;;;;;;;;;;;24.73;43.63;101930.69;5023188;28;1891;-81
2023/07/07 10:06:31;;;;;;;;;;;;;;;24.74;42.19;101931.50;5020857;28;1398;-82
2023/07/07 10:08:56;;;;;;;;;;;;;;;24.76;43.46;101925.00;5022611;28;1320;-81
2023/07/07 10:11:26;;;;;;;;;;;;;;;24.75;43.61;101918.03;5013869;28;1311;-81
2023/07/07 10:13:52;;;;;;;;;;;;;;;24.84;43.75;101927.53;5017426;28;1306;-81
2023/07/07 10:16:40;;;;;;;;;;;;;;;24.90;41.47;101921.44;5020824;28;1223;-81
2023/07/07 10:19:10;;;;;;;;;;;;;;;25.01;41.65;101929.88;5012762;28;1187;-81
2023/07/07 10:21:35;;;;;;;;;;;;;;;25.08;40.90;101926.28;5018212;28;1237;-81
2023/07/07 10:24:00;;;;;;;;;;;;;;;25.16;42.06;101922.66;5028402;28;1322;-80
2023/07/07 10:26:25;;;;;;;;;;;;;;;25.28;41.41;101929.06;5027807;28;1293;-81
2023/07/07 10:28:52;;;;;;;;;;;;;;;25.31;41.16;101928.66;5023848;28;1256;-81
2023/07/07 10:31:17;;;;;;;;;;;;;;;25.41;41.92;101923.81;5028462;28;1099;-81
2023/07/07 10:33:43;;;;;;;;;;;;;;;25.50;41.18;101931.63;5025648;28;1251;-81
2023/07/07 10:36:28;;;;;;;;;;;;;;;25.57;40.68;101930.63;5027270;28;1272;-81
2023/07/07 10:38:55;;;;;;;;;;;;;;;25.67;41.04;101916.97;5025094;28;1237;-81
2023/07/07 10:41:20;;;;;;;;;;;;;;;25.84;41.15;101918.31;5021896;28;1313;-81
2023/07/07 10:43:46;;;;;;;;;;;;;;;25.99;40.28;101920.00;5026589;28;1890;-81
2023/07/07 10:46:11;;;;;;;;;;;;;;;25.97;39.40;101922.00;5023565;28;1351;-81
2023/07/07 10:48:39;;;;;;;;;;;;;;;25.94;39.96;101921.41;5026569;28;1077;-81
2023/07/07 10:51:23;;;;;;;;;;;;;;;26.00;38.08;101918.97;5021325;28;1489;-81
2023/07/07 10:53:57;;;;;;;;;;;;;;;25.95;37.72;101915.06;5023816;28;1279;-81
2023/07/07 10:56:28;;;;;;;;;;;;;;;25.98;37.38;101915.69;5024320;28;1421;-81
2023/07/07 10:58:53;;;;;;;;;;;;;;;26.06;39.19;101915.50;5042147;28;1310;-81
2023/07/07 11:01:18;;;;;;;;;;;;;;;26.22;38.95;101925.78;5022913;28;1272;-81
2023/07/07 11:03:46;;;;;;;;;;;;;;;26.35;38.75;101915.16;5023290;28;1969;-82
2023/07/07 11:06:27;;;;;;;;;;;;;;;26.43;37.62;101916.81;5020323;28;1278;-81
2023/07/07 11:09:01;;;;;;;;;;;;;;;26.51;38.52;101899.84;5017621;28;1276;-81
2023/07/07 11:11:39;;;;;;;;;;;;;;;26.58;38.60;101904.13;5018105;28;1355;-81
2023/07/07 11:14:23;;;;;;;;;;;;;;;26.64;37.12;101905.16;5021508;28;1455;-81
2023/07/07 11:16:54;;;;;;;;;;;;;;;26.72;35.82;101899.63;5021962;28;1397;-81
2023/07/07 11:19:19;;;;;;;;;;;;;;;26.77;37.31;101907.81;5022076;28;1138;-80
2023/07/07 11:21:44;;;;;;;;;;;;;;;26.85;36.96;101904.94;5019876;28;2028;-81
2023/07/07 11:24:16;;;;;;;;;;;;;;;26.94;34.69;101903.69;5024008;28;1413;-81
2023/07/07 11:26:44;;;;;;;;;;;;;;;27.08;35.72;101903.72;5019236;28;1588;-82
2023/07/07 11:29:20;;;;;;;;;;;;;;;27.15;32.91;101893.84;5023047;28;1255;-81
2023/07/07 11:31:45;;;;;;;;;;;;;;;27.20;35.36;101896.72;5035840;28;1303;-82
2023/07/07 11:34:16;;;;;;;;;;;;;;;27.25;35.57;101883.59;5040789;28;1530;-82
2023/07/07 11:36:47;;;;;;;;;;;;;;;27.26;36.50;101895.88;5021913;28;1006;-81
2023/07/07 11:39:24;;;;;;;;;;;;;;;27.33;35.25;101896.66;5024605;28;1408;-81
2023/07/07 11:42:08;;;;;;;;;;;;;;;27.33;35.20;101891.34;5020024;28;2028;-81
2023/07/07 11:44:46;;;;;;;;;;;;;;;27.35;33.41;101894.59;5019148;28;1291;-81
2023/07/07 11:47:14;;;;;;;;;;;;;;;27.44;33.86;101888.00;5017058;28;1473;-81
2023/07/07 11:49:58;;;;;;;;;;;;;;;27.50;34.93;101892.50;5013667;28;1347;-81
2023/07/07 11:52:38;;;;;;;;;;;;;;;27.51;33.71;101883.47;5023406;28;1257;-81
2023/07/07 11:55:22;;;;;;;;;;;;;;;27.56;34.85;101882.03;5019695;28;1091;-81
2023/07/07 11:57:54;;;;;;;;;;;;;;;27.59;34.12;101886.94;5024119;28;1427;-82
2023/07/07 12:00:42;;;;;;;;;;;;;;;27.46;33.91;101880.63;5038279;28;1336;-81
2023/07/07 12:03:30;;;;;;;;;;;;;;;27.38;35.72;101872.88;5015014;28;1907;-82
2023/07/07 12:05:58;;;;;;;;;;;;;;;27.49;34.27;101872.22;5017612;28;1392;-81
2023/07/07 12:08:29;;;;;;;;;;;;;;;27.51;34.44;101875.47;5026701;28;1354;-82
2023/07/07 12:10:57;;;;;;;;;;;;;;;27.56;34.26;101874.03;5018261;28;1558;-81
2023/07/07 12:13:25;;;;;;;;;;;;;;;27.64;34.82;101881.75;5015024;28;1079;-82
2023/07/07 12:16:02;;;;;;;;;;;;;;;27.70;35.11;101870.28;5017140;28;1242;-81
2023/07/07 12:18:30;;;;;;;;;;;;;;;27.82;34.08;101873.13;5021581;28;1341;-81
2023/07/07 12:21:00;;;;;;;;;;;;;;;27.80;34.10;101865.31;5026108;28;1195;-81
2023/07/07 12:23:29;;;;;;;;;;;;;;;27.82;33.38;101863.25;5022317;28;1991;-81
2023/07/07 12:26:01;;;;;;;;;;;;;;;27.94;34.82;101866.88;5020924;28;1244;-82
2023/07/07 12:28:27;;;;;;;;;;;;;;;27.86;34.27;101863.63;5016110;28;1359;-81
2023/07/07 12:30:52;;;;;;;;;;;;;;;27.81;34.68;101864.28;5014372;28;1109;-81
2023/07/07 12:33:17;;;;;;;;;;;;;;;27.87;35.51;101860.78;5020569;28;1374;-81
2023/07/07 12:35:46;;;;;;;;;;;;;;;27.83;33.96;101848.88;5019339;28;1114;-81
2023/07/07 12:38:11;;;;;;;;;;;;;;;27.78;34.06;101851.38;5024681;28;1328;-81
2023/07/07 12:40:41;;;;;;;;;;;;;;;27.77;34.00;101852.41;5023535;28;1086;-81
2023/07/07 12:43:17;;;;;;;;;;;;;;;27.71;34.36;101851.44;5018814;28;1893;-81
2023/07/07 12:45:44;;;;;;;;;;;;;;;27.62;35.50;101857.19;5020256;28;1200;-81
2023/07/07 12:48:17;;;;;;;;;;;;;;;27.78;34.19;101851.38;5020266;28;923;-81
2023/07/07 12:50:42;;;;;;;;;;;;;;;27.85;34.50;101846.81;5026480;28;1033;-81
2023/07/07 12:53:26;;;;;;;;;;;;;;;27.88;34.54;101841.06;5024402;28;1250;-81
2023/07/07 12:56:02;;;;;;;;;;;;;;;27.89;34.24;101848.03;5024846;28;1576;-81
2023/07/07 12:58:33;;;;;;;;;;;;;;;27.84;33.80;101837.19;5018803;28;1001;-81
2023/07/07 13:01:13;;;;;;;;;;;;;;;27.78;34.48;101840.72;5010323;28;1097;-81
2023/07/07 13:03:42;;;;;;;;;;;;;;;27.84;33.67;101839.84;5022646;28;1953;-81
2023/07/07 13:06:24;;;;;;;;;;;;;;;27.79;33.76;101837.00;5013689;28;1196;-81
2023/07/07 13:09:01;;;;;;;;;;;;;;;27.87;34.19;101836.78;5026456;28;1141;-81
2023/07/07 13:11:35;;;;;;;;;;;;;;;27.96;34.81;101832.78;5021188;28;1303;-81
2023/07/07 13:14:00;;;;;;;;;;;;;;;27.95;33.27;101831.16;5019251;28;1072;-81
2023/07/07 13:16:25;;;;;;;;;;;;;;;27.93;34.31;101827.91;5019442;28;1026;-81
2023/07/07 13:18:50;;;;;;;;;;;;;;;27.96;34.30;101827.47;5023022;28;1378;-81
2023/07/07 13:21:16;;;;;;;;;;;;;;;27.91;31.87;101835.28;5027750;28;997;-81
2023/07/07 13:23:44;;;;;;;;;;;;;;;27.83;33.92;101838.22;5027035;28;1965;-81
2023/07/07 13:26:26;;;;;;;;;;;;;;;27.88;33.52;101833.06;5019570;28;1193;-81
2023/07/07 13:28:52;;;;;;;;;;;;;;;28.02;34.13;101831.94;5025406;28;1403;-81
2023/07/07 13:31:17;;;;;;;;;;;;;;;28.08;34.54;101830.25;5020037;28;1315;-81
2023/07/07 13:33:48;;;;;;;;;;;;;;;28.19;33.86;101826.06;5025232;28;1176;-81
2023/07/07 13:36:14;;;;;;;;;;;;;;;28.28;33.68;101830.09;5027043;28;1422;-81
2023/07/07 13:38:44;;;;;;;;;;;;;;;28.28;33.46;101824.78;5028581;28;1366;-81
2023/07/07 13:41:12;;;;;;;;;;;;;;;28.27;33.56;101817.78;5021909;28;1097;-81
2023/07/07 13:43:40;;;;;;;;;;;;;;;28.27;33.57;101813.28;5025174;28;1902;-81
2023/07/07 13:46:15;;;;;;;;;;;;;;;28.18;32.81;101813.75;5018778;28;1302;-81
2023/07/07 13:48:42;;;;;;;;;;;;;;;28.10;32.43;101811.34;5025551;28;1061;-81
2023/07/07 13:51:15;;;;;;;;;;;;;;;28.05;31.98;101807.50;5029716;28;1447;-81
2023/07/07 13:53:41;;;;;;;;;;;;;;;28.05;33.38;101799.50;5029594;28;1257;-81
2023/07/07 13:56:08;;;;;;;;;;;;;;;28.13;32.97;101805.59;5023928;28;1228;-82
2023/07/07 13:58:33;;;;;;;;;;;;;;;28.05;33.47;101802.16;5038629;28;1213;-81
2023/07/07 14:01:00;;;;;;;;;;;;;;;28.05;33.47;101804.84;5028513;28;1418;-81
2023/07/07 14:03:26;;;;;;;;;;;;;;;28.00;32.50;101796.66;5020279;28;1906;-82
2023/07/07 14:05:57;;;;;;;;;;;;;;;28.10;33.63;101795.34;5026401;28;959;-81
2023/07/07 14:08:23;;;;;;;;;;;;;;;28.16;31.90;101795.31;5024754;28;1236;-82
2023/07/07 14:10:50;;;;;;;;;;;;;;;28.10;31.22;101795.34;5017053;28;1441;-81
2023/07/07 14:13:16;;;;;;;;;;;;;;;28.00;32.84;101795.84;5026811;28;1160;-81
2023/07/07 14:16:02;;;;;;;;;;;;;;;28.03;30.99;101798.06;5026723;28;1368;-81
2023/07/07 14:18:29;;;;;;;;;;;;;;;28.01;32.34;101790.28;5025416;28;1738;-81
2023/07/07 14:20:55;;;;;;;;;;;;;;;28.03;32.60;101796.22;5027840;28;1194;-81
2023/07/07 14:23:21;;;;;;;;;;;;;;;28.07;32.38;101793.94;5028109;28;1894;-81
2023/07/07 14:25:47;;;;;;;;;;;;;;;28.04;29.78;101792.53;5042184;28;1396;-81
2023/07/07 14:28:15;;;;;;;;;;;;;;;27.96;32.03;101795.47;5023304;28;1386;-81